Time;durP1;ratioP1;P1;durP2;ratioP2;P2;SDS_P1;SDS_P2;PMS_P1;PMS_P2;Temp;Humidity;BMP_temperature;BMP_pressure;BME280_temperature;BME280_humidity;BME280_pressure;Samples;Min_cycle;Max_cycle;Signal;HPM_P1;HPM_P2
2023/08/17 00:00:19;;;;;;;13.00;5.65;;;;;;;24.60;64.09;99815.50;4295519;33;33818;-80
2023/08/17 00:02:47;;;;;;;7.10;4.55;;;;;;;24.52;64.59;99807.47;4294034;33;34250;-78
2023/08/17 00:05:14;;;;;;;5.65;4.30;;;;;;;24.64;64.21;99806.66;4297941;33;33455;-80
2023/08/17 00:07:42;;;;;;;7.75;4.93;;;;;;;24.60;64.36;99815.50;4299280;33;32359;-79
2023/08/17 00:10:10;;;;;;;8.57;4.60;;;;;;;24.69;64.06;99808.81;4306844;33;35254;-80
2023/08/17 00:12:37;;;;;;;7.75;4.82;;;;;;;24.53;64.64;99803.69;4319990;33;33868;-80
2023/08/17 00:15:05;;;;;;;7.70;5.07;;;;;;;24.64;64.14;99800.34;4320387;33;34158;-80
2023/08/17 00:17:33;;;;;;;6.28;4.40;;;;;;;24.72;64.03;99799.31;4323181;33;33427;-79
2023/08/17 00:20:01;;;;;;;7.37;4.72;;;;;;;24.76;64.08;99803.34;4330334;33;33937;-80
2023/08/17 00:22:28;;;;;;;9.20;5.30;;;;;;;24.82;63.93;99797.91;4329168;33;33653;-80
2023/08/17 00:24:56;;;;;;;7.68;5.40;;;;;;;24.76;63.97;99793.25;4327397;33;33286;-80
2023/08/17 00:27:24;;;;;;;7.60;4.60;;;;;;;24.84;63.49;99798.53;4328347;33;33702;-81
2023/08/17 00:29:52;;;;;;;8.35;4.72;;;;;;;24.85;63.66;99793.91;4330770;33;33991;-81
2023/08/17 00:32:20;;;;;;;8.00;5.53;;;;;;;24.74;63.96;99784.38;4328609;33;33639;-80
2023/08/17 00:34:48;;;;;;;9.90;5.78;;;;;;;24.81;63.58;99787.97;4331249;33;33372;-81
2023/08/17 00:37:15;;;;;;;7.12;5.35;;;;;;;24.84;63.63;99792.19;4327176;33;34784;-81
2023/08/17 00:39:43;;;;;;;8.75;5.87;;;;;;;24.73;63.83;99787.34;4330277;33;35000;-81
2023/08/17 00:42:11;;;;;;;7.95;5.15;;;;;;;24.81;63.77;99789.88;4331399;33;33763;-81
2023/08/17 00:44:38;;;;;;;12.20;6.53;;;;;;;24.86;63.41;99777.28;4329993;33;34210;-81
2023/08/17 00:47:06;;;;;;;10.70;6.70;;;;;;;24.82;63.58;99773.28;4326626;33;35193;-82
2023/08/17 00:49:35;;;;;;;14.75;5.15;;;;;;;24.87;63.44;99786.31;4331479;33;33684;-76
2023/08/17 00:52:04;;;;;;;8.82;5.95;;;;;;;24.90;63.46;99785.91;4329842;33;33708;-77
2023/08/17 00:54:32;;;;;;;9.13;5.37;;;;;;;24.91;63.42;99784.88;4323870;33;33094;-77
2023/08/17 00:57:00;;;;;;;9.65;5.82;;;;;;;24.90;63.49;99785.91;4325822;33;33763;-77
2023/08/17 00:59:28;;;;;;;8.85;6.82;;;;;;;24.89;63.47;99795.19;4327571;33;34995;-77
2023/08/17 01:02:04;;;;;;;8.35;4.90;;;;;;;24.94;63.17;99797.28;4326793;33;33764;-77
2023/08/17 01:04:31;;;;;;;9.10;5.00;;;;;;;25.00;62.90;99802.78;4327695;33;33261;-77
2023/08/17 01:06:59;;;;;;;8.75;6.00;;;;;;;24.96;63.14;99800.66;4329354;33;34675;-78
2023/08/17 01:09:27;;;;;;;12.15;6.15;;;;;;;24.96;62.98;99804.25;4329654;33;34279;-77
2023/08/17 01:12:17;;;;;;;12.30;7.25;;;;;;;24.98;62.83;99801.31;4330958;33;33723;-78
2023/08/17 01:15:11;;;;;;;6.75;4.72;;;;;;;24.97;63.08;99810.56;4323968;33;33134;-78
2023/08/17 01:17:45;;;;;;;13.80;5.95;;;;;;;25.00;62.91;99801.94;4328818;33;33855;-78
2023/08/17 01:20:15;;;;;;;14.93;5.55;;;;;;;24.92;63.02;99811.19;4329453;33;33637;-78
2023/08/17 01:22:46;;;;;;;11.48;7.57;;;;;;;24.91;63.10;99812.25;4329725;33;33677;-78
2023/08/17 01:25:13;;;;;;;7.10;5.12;;;;;;;24.89;63.05;99813.50;4316931;33;33096;-78
2023/08/17 01:27:45;;;;;;;7.68;5.65;;;;;;;24.94;62.80;99810.97;4325041;33;33708;-78
2023/08/17 01:30:15;;;;;;;11.93;6.05;;;;;;;24.86;62.87;99810.13;4330431;33;34109;-78
2023/08/17 01:32:58;;;;;;;11.85;7.65;;;;;;;24.83;62.83;99810.53;4317083;33;33976;-78
2023/08/17 01:35:31;;;;;;;8.88;5.20;;;;;;;24.81;62.91;99812.63;4330472;33;33972;-79
2023/08/17 01:38:00;;;;;;;10.10;5.37;;;;;;;24.63;63.25;99810.47;4309291;33;35965;-79
2023/08/17 01:40:29;;;;;;;8.00;5.95;;;;;;;24.71;62.94;99806.69;4313575;33;33341;-79
2023/08/17 01:42:56;;;;;;;16.50;6.45;;;;;;;24.69;63.15;99803.34;4319840;33;33550;-79
2023/08/17 01:45:25;;;;;;;8.80;5.87;;;;;;;24.69;63.26;99802.47;4313885;33;33406;-79
2023/08/17 01:47:52;;;;;;;10.00;7.07;;;;;;;24.73;63.15;99801.88;4299935;33;34033;-79
2023/08/17 01:50:20;;;;;;;10.27;5.97;;;;;;;24.72;63.11;99804.78;4300296;33;34153;-81
2023/08/17 01:52:51;;;;;;;11.40;4.97;;;;;;;24.77;63.07;99791.34;4311964;33;33860;-81
2023/08/17 01:55:21;;;;;;;7.68;4.87;;;;;;;24.78;62.98;99798.50;4315272;33;33482;-80
2023/08/17 01:57:49;;;;;;;9.32;4.78;;;;;;;24.79;63.01;99797.47;4314041;33;33561;-80
2023/08/17 02:00:17;;;;;;;8.30;5.10;;;;;;;24.77;62.98;99789.44;4312572;33;32704;-79
2023/08/17 02:02:44;;;;;;;12.43;5.57;;;;;;;24.79;63.08;99792.84;4312216;33;32585;-79
2023/08/17 02:05:12;;;;;;;9.02;5.70;;;;;;;24.82;62.98;99797.91;4313668;33;34117;-79
2023/08/17 02:07:40;;;;;;;8.88;5.60;;;;;;;24.83;63.06;99796.84;4311255;33;33715;-77
2023/08/17 02:10:08;;;;;;;7.37;5.22;;;;;;;24.85;63.17;99802.97;4321066;33;33905;-76
2023/08/17 02:12:35;;;;;;;7.75;6.00;;;;;;;24.89;63.19;99799.81;4324393;33;33452;-76
2023/08/17 02:15:03;;;;;;;11.50;6.15;;;;;;;24.87;63.37;99798.09;4324784;33;34029;-78
2023/08/17 02:17:31;;;;;;;8.23;5.72;;;;;;;24.90;63.29;99798.75;4330963;33;34678;-78
2023/08/17 02:19:59;;;;;;;8.30;7.15;;;;;;;24.87;63.30;99800.84;4329681;33;34781;-78
2023/08/17 02:22:26;;;;;;;9.20;6.32;;;;;;;24.88;63.48;99798.97;4329136;33;33607;-79
2023/08/17 02:24:55;;;;;;;12.98;7.35;;;;;;;24.86;63.55;99795.59;4329652;33;33334;-78
2023/08/17 02:27:22;;;;;;;11.43;6.95;;;;;;;24.89;63.74;99802.56;4330671;33;33689;-79
2023/08/17 02:29:50;;;;;;;13.52;6.97;;;;;;;24.80;64.00;99800.00;4330466;33;33686;-80
2023/08/17 02:32:18;;;;;;;10.93;8.98;;;;;;;24.63;65.04;99805.00;4328505;33;33746;-79
2023/08/17 02:34:47;;;;;;;11.10;6.95;;;;;;;24.68;64.94;99801.63;4321846;33;33463;-79
2023/08/17 02:37:14;;;;;;;8.98;6.03;;;;;;;24.73;64.91;99809.25;4327537;33;34894;-79
2023/08/17 02:39:42;;;;;;;10.82;5.93;;;;;;;24.46;66.03;99794.59;4330542;33;34746;-79
2023/08/17 02:42:10;;;;;;;9.15;5.65;;;;;;;24.61;65.46;99801.59;4328433;33;34776;-79
2023/08/17 02:44:38;;;;;;;12.37;7.60;;;;;;;24.69;65.03;99799.72;4326649;33;33370;-78
2023/08/17 02:47:06;;;;;;;11.07;7.50;;;;;;;24.83;64.62;99805.06;4321191;33;33863;-79
2023/08/17 02:49:33;;;;;;;11.12;7.72;;;;;;;24.91;64.30;99803.16;4332734;33;33829;-79
2023/08/17 02:52:01;;;;;;;11.00;8.25;;;;;;;24.85;64.75;99799.38;4328891;33;34229;-79
2023/08/17 02:54:28;;;;;;;15.15;8.48;;;;;;;24.90;64.78;99794.13;4332436;33;33318;-79
2023/08/17 02:56:56;;;;;;;13.20;6.65;;;;;;;24.96;64.58;99785.09;4332231;33;32389;-79
2023/08/17 02:59:23;;;;;;;10.07;7.45;;;;;;;25.00;64.59;99782.78;4332565;33;33849;-78
2023/08/17 03:01:53;;;;;;;12.88;7.70;;;;;;;25.00;64.54;99791.81;4330291;33;33603;-76
2023/08/17 03:04:20;;;;;;;13.45;6.55;;;;;;;24.97;64.54;99770.34;4331433;33;33938;-73
2023/08/17 03:06:48;;;;;;;9.07;6.05;;;;;;;24.95;64.53;99779.84;4332600;33;34590;-73
2023/08/17 03:09:15;;;;;;;9.32;6.43;;;;;;;24.95;64.48;99786.16;4327237;33;34816;-72
2023/08/17 03:11:43;;;;;;;8.52;5.40;;;;;;;25.00;64.17;99789.09;4328445;33;34593;-74
2023/08/17 03:14:11;;;;;;;8.98;5.97;;;;;;;25.02;64.38;99787.00;4329870;33;33239;-73
2023/08/17 03:16:39;;;;;;;9.45;7.78;;;;;;;25.01;64.54;99787.22;4329417;33;34916;-74
2023/08/17 03:19:10;;;;;;;9.57;6.93;;;;;;;25.03;64.53;99783.19;4329828;33;33885;-73
2023/08/17 03:21:39;;;;;;;12.23;6.87;;;;;;;25.05;64.46;99789.31;4329937;33;33463;-73
2023/08/17 03:24:07;;;;;;;12.10;6.35;;;;;;;25.04;64.38;99790.38;4332351;33;32218;-73
2023/08/17 03:26:35;;;;;;;9.10;5.72;;;;;;;25.06;64.34;99793.72;4331926;33;34651;-73
2023/08/17 03:29:03;;;;;;;8.15;5.00;;;;;;;25.07;64.42;99794.56;4332435;33;33965;-72
2023/08/17 03:31:31;;;;;;;10.25;7.37;;;;;;;25.06;64.24;99788.25;4330379;33;34744;-74
2023/08/17 03:34:00;;;;;;;11.35;8.05;;;;;;;25.04;64.21;99782.16;4327150;33;33235;-73
2023/08/17 03:36:28;;;;;;;12.52;5.62;;;;;;;24.98;64.15;99780.25;4331091;33;33724;-73
2023/08/17 03:38:55;;;;;;;19.58;9.30;;;;;;;24.94;64.21;99776.22;4332178;33;33765;-73
2023/08/17 03:41:26;;;;;;;13.35;6.95;;;;;;;24.89;64.43;99780.66;4331079;33;34209;-73
2023/08/17 03:43:54;;;;;;;12.18;6.30;;;;;;;24.93;64.51;99779.19;4332079;33;34780;-73
2023/08/17 03:46:21;;;;;;;10.40;6.65;;;;;;;24.92;64.51;99780.25;4326584;33;33469;-73
2023/08/17 03:48:50;;;;;;;12.90;7.68;;;;;;;24.94;64.24;99781.69;4328535;33;33874;-73
2023/08/17 03:51:18;;;;;;;11.48;7.20;;;;;;;24.79;64.58;99781.06;4331336;33;33549;-73
2023/08/17 03:53:46;;;;;;;13.45;6.45;;;;;;;24.81;64.62;99784.41;4331038;33;33105;-73
2023/08/17 03:56:14;;;;;;;7.55;5.82;;;;;;;24.86;64.58;99771.78;4316545;33;33962;-73
2023/08/17 03:58:43;;;;;;;7.80;6.45;;;;;;;24.89;64.58;99781.50;4324347;33;34707;-72
2023/08/17 04:01:11;;;;;;;10.05;6.87;;;;;;;24.91;64.59;99779.41;4328179;33;34642;-72
2023/08/17 04:03:39;;;;;;;10.45;7.03;;;;;;;24.94;64.52;99776.22;4330568;33;33384;-72
2023/08/17 04:06:09;;;;;;;9.45;5.72;;;;;;;24.90;64.54;99782.34;4328770;33;33692;-72
2023/08/17 04:08:38;;;;;;;14.30;6.78;;;;;;;24.96;64.23;99782.34;4332010;33;33808;-72
2023/08/17 04:11:06;;;;;;;19.20;6.53;;;;;;;24.96;64.13;99789.72;4331877;33;34978;-72
2023/08/17 04:13:33;;;;;;;11.07;9.25;;;;;;;24.97;64.15;99789.50;4323043;33;34444;-72
2023/08/17 04:16:01;;;;;;;10.48;6.87;;;;;;;24.96;64.10;99790.56;4329896;33;32334;-74
2023/08/17 04:18:29;;;;;;;11.38;6.87;;;;;;;24.90;64.24;99787.81;4330414;33;33862;-73
2023/08/17 04:20:56;;;;;;;10.23;7.12;;;;;;;24.89;64.29;99791.59;4330042;33;33588;-74
2023/08/17 04:23:25;;;;;;;8.73;6.30;;;;;;;24.85;64.52;99796.66;4329991;33;33214;-74
2023/08/17 04:25:53;;;;;;;11.85;6.25;;;;;;;24.92;64.32;99791.19;4324554;33;33815;-74
2023/08/17 04:28:21;;;;;;;9.60;6.57;;;;;;;24.85;64.70;99796.66;4331034;33;33800;-74
2023/08/17 04:30:48;;;;;;;11.50;8.50;;;;;;;24.80;64.85;99797.25;4330584;33;34927;-74
2023/08/17 04:33:16;;;;;;;11.40;7.87;;;;;;;24.84;64.73;99798.53;4326533;33;33304;-74
2023/08/17 04:35:47;;;;;;;9.55;6.07;;;;;;;24.71;65.14;99793.00;4324144;33;33551;-72
2023/08/17 04:38:15;;;;;;;12.85;7.57;;;;;;;24.79;64.78;99787.37;4328448;33;34703;-72
2023/08/17 04:40:43;;;;;;;16.12;6.32;;;;;;;24.84;64.82;99794.94;4331150;33;33737;-72
2023/08/17 04:43:11;;;;;;;7.93;5.68;;;;;;;24.89;64.73;99786.97;4326929;33;34582;-72
2023/08/17 04:45:39;;;;;;;9.15;5.87;;;;;;;24.92;64.47;99791.19;4325298;33;33809;-72
2023/08/17 04:48:07;;;;;;;9.73;7.12;;;;;;;24.91;64.40;99787.63;4330607;33;34012;-71
2023/08/17 04:50:35;;;;;;;14.35;7.90;;;;;;;24.87;64.71;99800.84;4320071;33;33861;-71
2023/08/17 04:53:03;;;;;;;12.13;8.30;;;;;;;24.85;64.78;99794.75;4330575;33;33278;-71
2023/08/17 04:55:31;;;;;;;10.15;7.75;;;;;;;24.79;65.18;99806.53;4327073;33;33647;-72
2023/08/17 04:57:59;;;;;;;9.48;6.90;;;;;;;24.85;65.02;99805.69;4330121;33;33827;-71
2023/08/17 05:00:30;;;;;;;12.57;7.50;;;;;;;24.90;64.99;99804.22;4327174;33;33885;-71
2023/08/17 05:02:58;;;;;;;17.55;8.10;;;;;;;24.96;65.15;99803.41;4329488;33;32989;-71
2023/08/17 05:05:27;;;;;;;10.15;7.40;;;;;;;25.02;65.09;99811.63;4328687;33;35589;-78
2023/08/17 05:07:55;;;;;;;12.35;7.55;;;;;;;25.14;65.04;99808.34;4330320;33;33855;-77
2023/08/17 05:10:23;;;;;;;12.95;6.57;;;;;;;25.21;64.94;99806.44;4331645;33;33827;-78
2023/08/17 05:12:51;;;;;;;12.23;6.80;;;;;;;25.24;65.01;99808.78;4330739;33;33356;-78
2023/08/17 05:15:19;;;;;;;10.57;6.28;;;;;;;25.22;64.44;99803.47;4326501;33;33782;-78
2023/08/17 05:17:48;;;;;;;11.12;7.75;;;;;;;25.18;64.14;99807.69;4330275;33;33352;-77
2023/08/17 05:20:16;;;;;;;8.63;6.05;;;;;;;25.25;64.23;99807.72;4330970;33;34223;-73
2023/08/17 05:22:44;;;;;;;9.10;6.62;;;;;;;25.22;64.18;99799.91;4329984;33;33863;-72
2023/08/17 05:25:12;;;;;;;8.80;6.05;;;;;;;25.18;64.50;99801.38;4330074;33;34979;-73
2023/08/17 05:27:40;;;;;;;10.60;6.47;;;;;;;25.32;64.11;99797.59;4329553;33;31826;-74
2023/08/17 05:30:08;;;;;;;7.95;5.50;;;;;;;25.43;63.87;99797.00;4331349;33;33691;-74
2023/08/17 05:32:36;;;;;;;10.82;6.55;;;;;;;25.49;63.81;99803.50;4327476;33;33736;-77
2023/08/17 05:35:06;;;;;;;8.63;5.80;;;;;;;25.52;63.95;99797.59;4328587;33;33464;-78
2023/08/17 05:37:34;;;;;;;8.88;6.57;;;;;;;25.58;63.77;99804.97;4326147;33;34047;-78
2023/08/17 05:40:02;;;;;;;9.63;6.18;;;;;;;25.61;63.70;99790.84;4328092;33;33532;-79
2023/08/17 05:42:29;;;;;;;8.85;5.82;;;;;;;25.65;63.49;99796.75;4330149;33;33128;-72
2023/08/17 05:44:57;;;;;;;10.60;6.15;;;;;;;25.70;63.56;99799.72;4328209;33;33774;-78
2023/08/17 05:47:25;;;;;;;12.60;5.82;;;;;;;25.62;63.80;99798.03;4327347;33;35104;-78
2023/08/17 05:49:53;;;;;;;11.85;7.20;;;;;;;25.65;64.12;99803.09;4325757;33;34697;-78
2023/08/17 05:52:20;;;;;;;17.45;6.82;;;;;;;25.73;64.28;99800.12;4322386;33;34290;-78
2023/08/17 05:54:48;;;;;;;11.57;5.90;;;;;;;25.82;64.18;99799.97;4328355;33;33576;-78
2023/08/17 05:57:16;;;;;;;8.95;5.75;;;;;;;25.85;63.75;99802.28;4333961;33;33856;-78
2023/08/17 05:59:43;;;;;;;8.38;5.70;;;;;;;25.87;63.63;99806.47;4330625;33;34813;-78
2023/08/17 06:02:11;;;;;;;9.68;6.60;;;;;;;25.91;63.49;99812.41;4324947;33;34163;-79
2023/08/17 06:04:39;;;;;;;11.10;7.10;;;;;;;25.90;63.44;99814.28;4324554;33;32734;-78
2023/08/17 06:07:06;;;;;;;11.07;6.75;;;;;;;25.97;63.38;99806.03;4328653;33;33827;-78
2023/08/17 06:09:34;;;;;;;11.27;7.62;;;;;;;26.02;63.28;99807.09;4330134;33;35393;-80
2023/08/17 06:12:02;;;;;;;8.35;5.28;;;;;;;26.06;62.85;99804.75;4329729;33;34711;-78
2023/08/17 06:14:29;;;;;;;14.68;7.35;;;;;;;26.14;63.00;99798.22;4327493;33;33663;-78
2023/08/17 06:16:57;;;;;;;12.18;5.97;;;;;;;26.17;63.45;99795.87;4328155;33;33892;-79
2023/08/17 06:19:25;;;;;;;12.30;7.05;;;;;;;26.21;63.62;99799.88;4330960;33;33760;-78
2023/08/17 06:21:52;;;;;;;11.95;7.78;;;;;;;26.28;63.67;99793.53;4330360;33;33432;-79
2023/08/17 06:24:20;;;;;;;13.32;6.60;;;;;;;26.33;63.34;99797.31;4329629;33;34646;-78
2023/08/17 06:26:48;;;;;;;10.48;5.75;;;;;;;26.31;62.80;99784.88;4330509;33;34006;-78
2023/08/17 06:29:15;;;;;;;11.80;6.53;;;;;;;26.14;62.81;99790.00;4333003;33;33530;-78
2023/08/17 06:31:43;;;;;;;11.75;6.82;;;;;;;26.06;62.44;99793.78;4333755;33;33295;-78
2023/08/17 06:34:11;;;;;;;9.77;6.43;;;;;;;26.14;63.49;99790.00;4328817;33;34992;-79
2023/08/17 06:36:39;;;;;;;9.57;5.82;;;;;;;26.33;62.57;99791.00;4327920;33;33688;-80
2023/08/17 06:39:06;;;;;;;10.10;6.93;;;;;;;25.86;59.91;99788.34;4328091;33;33771;-82
2023/08/17 06:41:34;;;;;;;9.18;7.55;;;;;;;25.95;60.77;99781.59;4331762;33;33952;-81
2023/08/17 06:44:02;;;;;;;15.20;8.30;;;;;;;26.07;61.13;99783.66;4329493;33;32471;-78
2023/08/17 06:46:30;;;;;;;13.05;6.62;;;;;;;25.92;62.60;99776.53;4320945;33;33825;-79
2023/08/17 06:48:57;;;;;;;10.05;6.37;;;;;;;25.54;63.62;99768.94;4330958;33;34640;-81
2023/08/17 06:51:25;;;;;;;10.77;7.68;;;;;;;25.65;61.71;99783.91;4329186;33;34156;-79
2023/08/17 06:53:53;;;;;;;12.43;6.78;;;;;;;25.42;61.96;99776.09;4328333;33;35500;-81
2023/08/17 06:56:22;;;;;;;12.57;7.18;;;;;;;25.71;61.82;99783.03;4330466;33;35123;-83
2023/08/17 06:58:50;;;;;;;9.35;6.15;;;;;;;25.86;61.30;99776.53;4331339;33;35252;-81
2023/08/17 07:01:17;;;;;;;11.20;7.90;;;;;;;26.14;60.17;99774.38;4326572;33;33190;-82
2023/08/17 07:03:45;;;;;;;8.50;6.55;;;;;;;26.19;61.09;99774.53;4329511;33;34342;-80
2023/08/17 07:06:13;;;;;;;13.10;8.52;;;;;;;26.53;59.11;99778.06;4331664;33;35803;-83
2023/08/17 07:08:40;;;;;;;12.73;9.75;;;;;;;26.19;59.33;99776.44;4315449;33;34056;-80
2023/08/17 07:11:09;;;;;;;11.00;6.40;;;;;;;26.43;58.59;99775.75;4330930;33;31905;-77
2023/08/17 07:13:37;;;;;;;10.43;6.95;;;;;;;26.29;58.33;99789.72;4324118;33;33751;-75
2023/08/17 07:16:04;;;;;;;12.05;7.75;;;;;;;26.12;59.28;99790.19;4330289;33;34108;-75
2023/08/17 07:18:32;;;;;;;10.98;7.18;;;;;;;25.95;58.66;99792.56;4332102;33;33692;-76
2023/08/17 07:20:59;;;;;;;12.00;7.75;;;;;;;25.76;59.62;99796.13;4330575;33;34269;-79
2023/08/17 07:23:27;;;;;;;14.00;11.12;;;;;;;25.89;59.66;99795.31;4326066;33;34848;-80
2023/08/17 07:25:55;;;;;;;10.55;7.00;;;;;;;25.97;59.27;99801.41;4326949;33;34104;-80
2023/08/17 07:28:22;;;;;;;9.60;7.55;;;;;;;25.85;59.51;99796.78;4312986;33;33272;-79
2023/08/17 07:30:50;;;;;;;18.12;7.28;;;;;;;25.23;61.33;99794.25;4312650;33;33128;-80
2023/08/17 07:33:18;;;;;;;15.63;9.65;;;;;;;25.21;61.45;99792.75;4315534;33;34828;-81
2023/08/17 07:35:45;;;;;;;16.58;9.15;;;;;;;25.58;60.04;99790.44;4282910;33;33454;-81
2023/08/17 07:38:13;;;;;;;12.23;8.65;;;;;;;25.41;61.21;99785.38;4283582;33;35129;-77
2023/08/17 07:40:42;;;;;;;15.07;9.00;;;;;;;25.46;60.48;99784.78;4283645;33;33200;-83
2023/08/17 07:43:10;;;;;;;10.30;7.93;;;;;;;25.83;59.76;99794.25;4282412;33;33472;-79
2023/08/17 07:45:37;;;;;;;14.20;9.90;;;;;;;25.69;59.94;99790.66;4282863;33;34098;-80
2023/08/17 07:48:06;;;;;;;16.95;10.38;;;;;;;25.44;60.29;99795.09;4282990;33;33757;-78
2023/08/17 07:50:33;;;;;;;10.82;7.82;;;;;;;25.20;62.43;99793.78;4283003;33;35420;-78
2023/08/17 07:53:01;;;;;;;18.12;8.70;;;;;;;25.91;60.63;99796.78;4283160;33;33764;-78
2023/08/17 07:55:29;;;;;;;13.62;8.70;;;;;;;25.95;59.98;99794.44;4264191;33;32592;-79
2023/08/17 07:57:56;;;;;;;11.35;8.23;;;;;;;25.98;59.90;99797.59;4270322;33;33822;-81
2023/08/17 08:00:24;;;;;;;13.65;7.87;;;;;;;25.82;60.24;99809.03;4267688;33;33163;-78
2023/08/17 08:02:52;;;;;;;13.32;8.43;;;;;;;25.84;60.98;99801.41;4269812;33;32315;-80
2023/08/17 08:05:20;;;;;;;13.55;8.57;;;;;;;25.87;59.96;99805.63;4269897;33;33798;-80
2023/08/17 08:07:47;;;;;;;13.68;6.95;;;;;;;26.16;59.95;99796.06;4306765;33;34537;-81
2023/08/17 08:10:15;;;;;;;9.35;5.97;;;;;;;26.12;60.36;99803.91;4310374;33;32823;-82
2023/08/17 08:12:43;;;;;;;7.97;5.97;;;;;;;26.22;58.53;99803.44;4311588;33;33292;-81
2023/08/17 08:15:10;;;;;;;13.27;6.10;;;;;;;26.27;57.78;99798.19;4309635;33;33281;-83
2023/08/17 08:17:38;;;;;;;10.57;7.28;;;;;;;25.79;58.22;99799.28;4307021;33;33604;-82
2023/08/17 08:20:07;;;;;;;10.98;6.62;;;;;;;25.83;56.93;99798.91;4299797;33;33271;-78
2023/08/17 08:22:34;;;;;;;9.10;5.75;;;;;;;25.50;57.11;99797.00;4297586;33;33296;-80
2023/08/17 08:25:02;;;;;;;12.05;7.18;;;;;;;25.55;57.10;99794.44;4297679;33;33947;-81
2023/08/17 08:27:30;;;;;;;8.57;6.07;;;;;;;25.54;57.51;99793.59;4310167;33;33971;-78
2023/08/17 08:29:57;;;;;;;8.63;5.80;;;;;;;25.33;58.85;99796.56;4311229;33;33430;-77
2023/08/17 08:32:25;;;;;;;10.80;6.80;;;;;;;26.22;55.41;99795.22;4310628;33;34450;-80
2023/08/17 08:34:55;;;;;;;7.18;5.15;;;;;;;26.39;55.22;99801.09;4309803;33;33818;-75
2023/08/17 08:37:23;;;;;;;12.02;5.10;;;;;;;26.54;55.36;99798.94;4308930;33;34047;-79
2023/08/17 08:39:53;;;;;;;9.57;5.90;;;;;;;26.70;54.83;99801.19;4312602;33;33171;-79
2023/08/17 08:42:22;;;;;;;9.07;6.22;;;;;;;26.64;54.85;99798.47;4306532;33;33609;-75
2023/08/17 08:44:49;;;;;;;9.77;6.68;;;;;;;26.93;54.39;99792.44;4309542;33;33038;-75
2023/08/17 08:47:18;;;;;;;9.98;6.05;;;;;;;27.08;53.52;99794.03;4309920;33;34760;-76
2023/08/17 08:49:59;;;;;;;11.23;8.88;;;;;;;27.13;52.98;99791.47;4311765;33;32878;-76
2023/08/17 08:52:33;;;;;;;14.50;5.43;;;;;;;26.68;53.75;99794.25;4311311;33;33511;-77
2023/08/17 08:55:28;;;;;;;12.50;7.33;;;;;;;27.22;51.84;99789.31;4300690;33;35910;-77
2023/08/17 08:57:56;;;;;;;12.40;7.10;;;;;;;27.15;53.27;99792.09;4241534;33;33501;-82
2023/08/17 09:00:25;;;;;;;8.85;5.18;;;;;;;26.79;53.99;99789.97;4236742;33;33459;-78
2023/08/17 09:02:53;;;;;;;10.82;6.60;;;;;;;27.02;54.10;99787.50;4236802;33;33440;-82
2023/08/17 09:05:22;;;;;;;8.38;6.28;;;;;;;27.23;53.18;99788.25;4239260;33;33743;-83
2023/08/17 09:07:50;;;;;;;7.93;5.25;;;;;;;27.45;53.42;99788.69;4238973;33;33563;-76
2023/08/17 09:10:18;;;;;;;7.12;4.28;;;;;;;27.17;52.90;99785.31;4240363;33;33059;-77
2023/08/17 09:12:47;;;;;;;7.78;4.93;;;;;;;27.23;52.82;99791.00;4239463;33;33796;-76
2023/08/17 09:15:16;;;;;;;8.60;4.05;;;;;;;27.35;52.01;99783.69;4237422;33;34393;-77
2023/08/17 09:17:44;;;;;;;9.05;5.45;;;;;;;27.45;51.70;99791.44;4241208;33;33399;-78
2023/08/17 09:20:12;;;;;;;7.93;4.65;;;;;;;27.57;51.48;99781.41;4240668;33;33080;-80
2023/08/17 09:22:43;;;;;;;6.68;3.58;;;;;;;27.61;51.99;99788.16;4229643;33;33572;-77
2023/08/17 09:25:11;;;;;;;7.07;4.40;;;;;;;27.42;51.93;99781.78;4238389;33;33533;-79
2023/08/17 09:27:41;;;;;;;7.40;4.05;;;;;;;27.49;51.37;99779.81;4238861;33;35069;-78
2023/08/17 09:30:10;;;;;;;8.45;5.40;;;;;;;27.48;50.83;99772.63;4267100;33;31754;-79
2023/08/17 09:32:39;;;;;;;6.68;4.47;;;;;;;27.52;50.57;99771.09;4281957;33;34565;-79
2023/08/17 09:35:07;;;;;;;8.23;5.00;;;;;;;27.61;50.78;99772.50;4320646;33;33736;-78
2023/08/17 09:37:35;;;;;;;7.78;4.55;;;;;;;27.49;50.67;99773.47;4327081;33;33802;-78
2023/08/17 09:40:03;;;;;;;8.77;5.45;;;;;;;27.79;50.64;99765.37;4325848;33;34407;-77
2023/08/17 09:42:34;;;;;;;6.72;4.00;;;;;;;27.66;51.48;99768.25;4328226;33;34860;-78
2023/08/17 09:45:03;;;;;;;6.57;4.32;;;;;;;27.31;51.99;99768.75;4294487;33;33456;-79
2023/08/17 09:47:31;;;;;;;7.75;5.25;;;;;;;27.76;50.98;99772.16;4299244;33;33958;-78
2023/08/17 09:49:58;;;;;;;6.87;4.97;;;;;;;27.75;50.83;99759.47;4299482;33;34145;-77
2023/08/17 09:52:27;;;;;;;8.65;4.90;;;;;;;27.89;51.01;99762.13;4298458;33;33605;-82
2023/08/17 09:54:55;;;;;;;6.10;4.18;;;;;;;27.93;50.92;99753.19;4298831;33;32681;-77
2023/08/17 09:57:23;;;;;;;8.30;4.68;;;;;;;27.76;50.81;99758.38;4299328;33;33901;-80
2023/08/17 09:59:53;;;;;;;6.65;4.45;;;;;;;28.08;50.06;99755.56;4302447;33;33249;-78
2023/08/17 10:02:26;;;;;;;10.45;4.60;;;;;;;28.21;49.55;99755.41;4297175;33;33493;-79
2023/08/17 10:04:57;;;;;;;11.25;5.47;;;;;;;27.93;48.98;99752.34;4307262;33;35239;-78
2023/08/17 10:07:30;;;;;;;7.72;5.15;;;;;;;27.96;49.71;99757.37;4265988;33;34229;-79
2023/08/17 10:10:03;;;;;;;8.30;4.55;;;;;;;28.27;49.60;99748.97;4268720;33;32723;-80
2023/08/17 10:12:38;;;;;;;6.28;4.35;;;;;;;28.32;50.56;99751.06;4252515;33;32947;-79
2023/08/17 10:15:11;;;;;;;7.05;4.65;;;;;;;28.18;49.23;99746.78;4246283;33;33513;-81
2023/08/17 10:17:44;;;;;;;6.72;4.40;;;;;;;28.26;49.92;99749.22;4285128;33;34219;-77
2023/08/17 10:20:14;;;;;;;5.93;3.72;;;;;;;28.35;48.06;99742.34;4286233;33;34344;-83
2023/08/17 10:23:04;;;;;;;6.62;4.43;;;;;;;28.53;49.15;99742.31;4259296;33;33667;-82
2023/08/17 10:25:32;;;;;;;8.77;4.93;;;;;;;28.92;48.58;99744.75;4257444;33;33027;-84
2023/08/17 10:28:03;;;;;;;8.20;4.85;;;;;;;29.14;47.77;99740.41;4258069;33;33921;-80
2023/08/17 10:30:31;;;;;;;9.65;4.35;;;;;;;29.43;46.33;99746.09;4256948;33;34559;-82
2023/08/17 10:32:59;;;;;;;7.70;4.90;;;;;;;29.42;47.30;99742.50;4257913;33;33919;-81
2023/08/17 10:35:27;;;;;;;7.43;5.22;;;;;;;28.99;47.49;99738.09;4259285;33;34075;-81
2023/08/17 10:37:54;;;;;;;8.35;4.95;;;;;;;28.94;47.25;99745.38;4263870;33;33654;-78
2023/08/17 10:40:34;;;;;;;6.55;4.28;;;;;;;28.81;47.60;99746.41;4283495;33;34016;-81
2023/08/17 10:43:02;;;;;;;8.10;5.07;;;;;;;28.81;47.21;99746.41;4291245;33;33790;-82
2023/08/17 10:45:32;;;;;;;10.77;5.10;;;;;;;28.72;47.92;99742.28;4300682;33;33974;-80
2023/08/17 10:48:07;;;;;;;7.05;4.47;;;;;;;28.98;47.63;99739.16;4300146;33;33864;-83
2023/08/17 10:50:37;;;;;;;8.35;4.82;;;;;;;29.33;47.72;99737.59;4298742;33;33733;-85
2023/08/17 10:53:10;;;;;;;10.00;5.60;;;;;;;29.29;46.63;99741.91;4304534;33;33390;-84
2023/08/17 10:55:45;;;;;;;7.97;5.15;;;;;;;29.57;45.81;99741.22;4334301;33;33862;-85
2023/08/17 10:58:12;;;;;;;;;;;;;;;29.70;46.95;99747.34;4331314;33;33387;-84
2023/08/17 11:00:44;;;;;;;8.13;5.10;;;;;;;29.82;44.66;99738.22;4331731;33;33307;-79
2023/08/17 11:03:22;;;;;;;7.00;4.82;;;;;;;29.45;46.08;99738.44;4328100;33;34356;-81
2023/08/17 11:05:57;;;;;;;7.57;5.25;;;;;;;29.39;46.02;99737.47;4333477;33;34187;-81
2023/08/17 11:08:31;;;;;;;7.40;4.87;;;;;;;29.23;46.66;99741.75;4329770;33;32954;-78
2023/08/17 11:11:03;;;;;;;6.82;5.32;;;;;;;29.31;46.57;99740.59;4324300;33;34277;-80
2023/08/17 11:13:36;;;;;;;15.82;6.93;;;;;;;29.66;45.98;99737.88;4315006;33;33548;-84
2023/08/17 11:16:05;;;;;;;5.57;4.00;;;;;;;29.64;46.28;99734.53;4313256;33;35390;-85
2023/08/17 11:18:33;;;;;;;8.55;5.20;;;;;;;29.56;46.59;99739.50;4311157;33;33251;-84
2023/08/17 11:21:06;;;;;;;8.02;5.28;;;;;;;29.78;46.15;99729.59;4284254;33;32764;-84
2023/08/17 11:23:35;;;;;;;6.70;5.12;;;;;;;29.41;47.71;99732.56;4311036;33;33921;-81
2023/08/17 11:26:04;;;;;;;6.65;4.78;;;;;;;29.66;46.17;99737.03;4298971;33;33831;-81
2023/08/17 11:28:36;;;;;;;9.13;5.47;;;;;;;29.54;45.69;99737.00;4313123;33;34272;-81
2023/08/17 11:31:11;;;;;;;9.50;6.20;;;;;;;29.09;46.59;99725.69;4309332;33;32916;-81
2023/08/17 11:33:39;;;;;;;11.85;6.10;;;;;;;28.72;47.23;99736.78;4296858;33;33423;-85
2023/08/17 11:36:08;;;;;;;8.57;5.15;;;;;;;29.04;47.30;99733.81;4310791;33;34940;-87